<?xml version="1.0" encoding="UTF-8" standalone="no" ?>
<gpx xmlns="http://www.topografix.com/GPX/1/1" xmlns:xsi="http://www.w3.org/2001/XMLSchema-instance" xsi:schemaLocation="http://www.topografix.com/GPX/1/1 http://www.topografix.com/GPX/1/1/gpx.xsd" version="1.1" creator="VisuGPX - https://www.visugpx.com">
  <metadata>
    <name>Pecloz - Armenaz</name>
    <desc><![CDATA[Bauges : sommet du Pecloz et de l\'Armenaz]]></desc>
  </metadata>
  <trk>
    <name><![CDATA[bauges - pecloz armenaz]]></name>
    <desc><![CDATA[<h1>OruxMaps</h1><br /><hr align="center" width="480" style="height: 2px; width: 517px"/><h2>Nom: bauges - pecloz armenaz</h2><br /><p>Temps de départ: 06/07/2014 10:00</p><p>Temps d'arrivée: 06/07/2014 16:49</p><p>Distance: 12,2km (06:49)</p><p>Temps déplacement: 04:27</p><p>Vitesse moyenne: 1,8km/h</p><p>Vitesse moyenne: 2,7km/h</p><p>Vitess Max.: 9,1km/h</p><p>Altitude minimale: 853m</p><p>Altitude maximale: 2202m</p><p>Vitesse d'élévation: 437m/h</p><p>Vitesse de descente: -472,7m/h</p><p>Gain Altitude: 1513m</p><p>Perte Altitude: -1515m</p><p>Temps d'élévation: 03:27</p><p>Temps de descente: 03:12</p><hr align="center" width="480" style="height: 2px; width: 517px"/>]]></desc>
    <trkseg>
      <trkpt lat="45.63915" lon="6.2051">
        <ele>865.18</ele>
        <time>2014-06-07T08:00:25Z</time>
      </trkpt>
      <trkpt lat="45.63902" lon="6.2049">
        <ele>865.26</ele>
        <time>2014-06-07T08:00:51Z</time>
      </trkpt>
      <trkpt lat="45.63894" lon="6.20467">
        <ele>867.03</ele>
        <time>2014-06-07T08:01:09Z</time>
      </trkpt>
      <trkpt lat="45.63883" lon="6.20445">
        <ele>866.13</ele>
        <time>2014-06-07T08:01:36Z</time>
      </trkpt>
      <trkpt lat="45.63869" lon="6.20428">
        <ele>862.93</ele>
        <time>2014-06-07T08:01:56Z</time>
      </trkpt>
      <trkpt lat="45.63862" lon="6.20403">
        <ele>866.2</ele>
        <time>2014-06-07T08:03:57Z</time>
      </trkpt>
      <trkpt lat="45.63847" lon="6.20388">
        <ele>866.94</ele>
        <time>2014-06-07T08:04:15Z</time>
      </trkpt>
      <trkpt lat="45.63834" lon="6.20368">
        <ele>864.94</ele>
        <time>2014-06-07T08:04:34Z</time>
      </trkpt>
      <trkpt lat="45.63825" lon="6.20345">
        <ele>865.83</ele>
        <time>2014-06-07T08:04:51Z</time>
      </trkpt>
      <trkpt lat="45.6382" lon="6.20319">
        <ele>869.3</ele>
        <time>2014-06-07T08:05:13Z</time>
      </trkpt>
      <trkpt lat="45.63817" lon="6.20294">
        <ele>868.74</ele>
        <time>2014-06-07T08:05:30Z</time>
      </trkpt>
      <trkpt lat="45.63805" lon="6.20274">
        <ele>864.47</ele>
        <time>2014-06-07T08:05:48Z</time>
      </trkpt>
      <trkpt lat="45.6379" lon="6.20258">
        <ele>870.21</ele>
        <time>2014-06-07T08:06:08Z</time>
      </trkpt>
      <trkpt lat="45.63774" lon="6.20244">
        <ele>869.96</ele>
        <time>2014-06-07T08:06:22Z</time>
      </trkpt>
      <trkpt lat="45.6376" lon="6.20225">
        <ele>877.2</ele>
        <time>2014-06-07T08:06:40Z</time>
      </trkpt>
      <trkpt lat="45.63745" lon="6.20208">
        <ele>888.39</ele>
        <time>2014-06-07T08:06:54Z</time>
      </trkpt>
      <trkpt lat="45.6373" lon="6.20193">
        <ele>888.66</ele>
        <time>2014-06-07T08:07:11Z</time>
      </trkpt>
      <trkpt lat="45.63721" lon="6.2017">
        <ele>881.21</ele>
        <time>2014-06-07T08:07:26Z</time>
      </trkpt>
      <trkpt lat="45.63709" lon="6.20149">
        <ele>877.58</ele>
        <time>2014-06-07T08:07:39Z</time>
      </trkpt>
      <trkpt lat="45.63698" lon="6.20129">
        <ele>879.88</ele>
        <time>2014-06-07T08:08:06Z</time>
      </trkpt>
      <trkpt lat="45.63682" lon="6.20116">
        <ele>885.32</ele>
        <time>2014-06-07T08:08:19Z</time>
      </trkpt>
      <trkpt lat="45.63672" lon="6.20095">
        <ele>885.73</ele>
        <time>2014-06-07T08:08:36Z</time>
      </trkpt>
      <trkpt lat="45.6366" lon="6.20076">
        <ele>887.51</ele>
        <time>2014-06-07T08:08:55Z</time>
      </trkpt>
      <trkpt lat="45.63652" lon="6.20051">
        <ele>884.7</ele>
        <time>2014-06-07T08:09:07Z</time>
      </trkpt>
      <trkpt lat="45.63637" lon="6.20034">
        <ele>882.46</ele>
        <time>2014-06-07T08:09:18Z</time>
      </trkpt>
      <trkpt lat="45.6362" lon="6.20024">
        <ele>888.69</ele>
        <time>2014-06-07T08:09:32Z</time>
      </trkpt>
      <trkpt lat="45.63602" lon="6.20013">
        <ele>891.5</ele>
        <time>2014-06-07T08:09:46Z</time>
      </trkpt>
      <trkpt lat="45.63586" lon="6.20001">
        <ele>888.92</ele>
        <time>2014-06-07T08:09:59Z</time>
      </trkpt>
      <trkpt lat="45.63569" lon="6.19989">
        <ele>892.81</ele>
        <time>2014-06-07T08:10:17Z</time>
      </trkpt>
      <trkpt lat="45.63556" lon="6.1997">
        <ele>903.83</ele>
        <time>2014-06-07T08:10:34Z</time>
      </trkpt>
      <trkpt lat="45.6354" lon="6.19954">
        <ele>904.92</ele>
        <time>2014-06-07T08:10:48Z</time>
      </trkpt>
      <trkpt lat="45.63525" lon="6.1994">
        <ele>903.62</ele>
        <time>2014-06-07T08:11:01Z</time>
      </trkpt>
      <trkpt lat="45.63509" lon="6.19926">
        <ele>901.95</ele>
        <time>2014-06-07T08:11:15Z</time>
      </trkpt>
      <trkpt lat="45.63493" lon="6.19913">
        <ele>901.5</ele>
        <time>2014-06-07T08:11:28Z</time>
      </trkpt>
      <trkpt lat="45.63478" lon="6.19897">
        <ele>900.51</ele>
        <time>2014-06-07T08:11:42Z</time>
      </trkpt>
      <trkpt lat="45.63461" lon="6.19886">
        <ele>902</ele>
        <time>2014-06-07T08:11:57Z</time>
      </trkpt>
      <trkpt lat="45.63451" lon="6.19863">
        <ele>903.71</ele>
        <time>2014-06-07T08:12:16Z</time>
      </trkpt>
      <trkpt lat="45.63433" lon="6.19862">
        <ele>909.01</ele>
        <time>2014-06-07T08:12:48Z</time>
      </trkpt>
      <trkpt lat="45.63414" lon="6.19868">
        <ele>917.08</ele>
        <time>2014-06-07T08:13:11Z</time>
      </trkpt>
      <trkpt lat="45.63398" lon="6.19878">
        <ele>927.02</ele>
        <time>2014-06-07T08:13:33Z</time>
      </trkpt>
      <trkpt lat="45.6338" lon="6.19888">
        <ele>927.8</ele>
        <time>2014-06-07T08:13:49Z</time>
      </trkpt>
      <trkpt lat="45.63362" lon="6.19896">
        <ele>932.85</ele>
        <time>2014-06-07T08:14:02Z</time>
      </trkpt>
      <trkpt lat="45.63345" lon="6.19906">
        <ele>937.5</ele>
        <time>2014-06-07T08:14:20Z</time>
      </trkpt>
      <trkpt lat="45.63329" lon="6.19922">
        <ele>957.46</ele>
        <time>2014-06-07T08:14:44Z</time>
      </trkpt>
      <trkpt lat="45.63318" lon="6.19943">
        <ele>972.83</ele>
        <time>2014-06-07T08:15:08Z</time>
      </trkpt>
      <trkpt lat="45.63302" lon="6.19959">
        <ele>965.19</ele>
        <time>2014-06-07T08:15:24Z</time>
      </trkpt>
      <trkpt lat="45.63286" lon="6.19972">
        <ele>961.89</ele>
        <time>2014-06-07T08:15:37Z</time>
      </trkpt>
      <trkpt lat="45.63276" lon="6.19993">
        <ele>962.73</ele>
        <time>2014-06-07T08:15:59Z</time>
      </trkpt>
      <trkpt lat="45.63269" lon="6.20017">
        <ele>955.84</ele>
        <time>2014-06-07T08:16:14Z</time>
      </trkpt>
      <trkpt lat="45.63261" lon="6.20042">
        <ele>956.74</ele>
        <time>2014-06-07T08:16:28Z</time>
      </trkpt>
      <trkpt lat="45.63253" lon="6.20067">
        <ele>955.78</ele>
        <time>2014-06-07T08:16:43Z</time>
      </trkpt>
      <trkpt lat="45.63245" lon="6.20091">
        <ele>951.88</ele>
        <time>2014-06-07T08:17:04Z</time>
      </trkpt>
      <trkpt lat="45.63238" lon="6.20116">
        <ele>950.54</ele>
        <time>2014-06-07T08:17:24Z</time>
      </trkpt>
      <trkpt lat="45.63234" lon="6.20141">
        <ele>940.26</ele>
        <time>2014-06-07T08:17:49Z</time>
      </trkpt>
      <trkpt lat="45.6322" lon="6.20159">
        <ele>948.42</ele>
        <time>2014-06-07T08:22:13Z</time>
      </trkpt>
      <trkpt lat="45.63208" lon="6.20179">
        <ele>947.85</ele>
        <time>2014-06-07T08:22:39Z</time>
      </trkpt>
      <trkpt lat="45.63195" lon="6.20197">
        <ele>951.06</ele>
        <time>2014-06-07T08:23:01Z</time>
      </trkpt>
      <trkpt lat="45.63186" lon="6.20221">
        <ele>941.46</ele>
        <time>2014-06-07T08:23:25Z</time>
      </trkpt>
      <trkpt lat="45.6317" lon="6.20233">
        <ele>950.44</ele>
        <time>2014-06-07T08:23:51Z</time>
      </trkpt>
      <trkpt lat="45.63154" lon="6.20246">
        <ele>961.63</ele>
        <time>2014-06-07T08:24:17Z</time>
      </trkpt>
      <trkpt lat="45.63136" lon="6.20252">
        <ele>970.62</ele>
        <time>2014-06-07T08:24:42Z</time>
      </trkpt>
      <trkpt lat="45.63145" lon="6.20274">
        <ele>976.16</ele>
        <time>2014-06-07T08:25:16Z</time>
      </trkpt>
      <trkpt lat="45.63163" lon="6.2028">
        <ele>985.66</ele>
        <time>2014-06-07T08:25:38Z</time>
      </trkpt>
      <trkpt lat="45.6315" lon="6.20299">
        <ele>978.4</ele>
        <time>2014-06-07T08:26:43Z</time>
      </trkpt>
      <trkpt lat="45.63133" lon="6.20307">
        <ele>979.81</ele>
        <time>2014-06-07T08:26:59Z</time>
      </trkpt>
      <trkpt lat="45.63117" lon="6.20322">
        <ele>979.09</ele>
        <time>2014-06-07T08:27:15Z</time>
      </trkpt>
      <trkpt lat="45.63102" lon="6.20337">
        <ele>981.91</ele>
        <time>2014-06-07T08:27:33Z</time>
      </trkpt>
      <trkpt lat="45.6309" lon="6.20358">
        <ele>985.56</ele>
        <time>2014-06-07T08:27:50Z</time>
      </trkpt>
      <trkpt lat="45.63081" lon="6.20381">
        <ele>983.7</ele>
        <time>2014-06-07T08:28:05Z</time>
      </trkpt>
      <trkpt lat="45.6307" lon="6.20401">
        <ele>984.22</ele>
        <time>2014-06-07T08:28:23Z</time>
      </trkpt>
      <trkpt lat="45.63059" lon="6.20423">
        <ele>992.4</ele>
        <time>2014-06-07T08:28:40Z</time>
      </trkpt>
      <trkpt lat="45.63044" lon="6.20438">
        <ele>997.52</ele>
        <time>2014-06-07T08:29:04Z</time>
      </trkpt>
      <trkpt lat="45.63032" lon="6.20457">
        <ele>992.29</ele>
        <time>2014-06-07T08:29:25Z</time>
      </trkpt>
      <trkpt lat="45.63016" lon="6.20471">
        <ele>990.84</ele>
        <time>2014-06-07T08:29:42Z</time>
      </trkpt>
      <trkpt lat="45.63002" lon="6.20488">
        <ele>990.9</ele>
        <time>2014-06-07T08:29:59Z</time>
      </trkpt>
      <trkpt lat="45.6299" lon="6.20508">
        <ele>997.61</ele>
        <time>2014-06-07T08:30:16Z</time>
      </trkpt>
      <trkpt lat="45.62977" lon="6.20526">
        <ele>999.76</ele>
        <time>2014-06-07T08:30:37Z</time>
      </trkpt>
      <trkpt lat="45.62962" lon="6.20542">
        <ele>1004.65</ele>
        <time>2014-06-07T08:31:00Z</time>
      </trkpt>
      <trkpt lat="45.62944" lon="6.20541">
        <ele>1011.18</ele>
        <time>2014-06-07T08:31:31Z</time>
      </trkpt>
      <trkpt lat="45.62936" lon="6.20564">
        <ele>1017</ele>
        <time>2014-06-07T08:31:54Z</time>
      </trkpt>
      <trkpt lat="45.62948" lon="6.20584">
        <ele>1025.4</ele>
        <time>2014-06-07T08:32:13Z</time>
      </trkpt>
      <trkpt lat="45.62966" lon="6.20589">
        <ele>1025.09</ele>
        <time>2014-06-07T08:32:35Z</time>
      </trkpt>
      <trkpt lat="45.62984" lon="6.20598">
        <ele>1023.83</ele>
        <time>2014-06-07T08:32:52Z</time>
      </trkpt>
      <trkpt lat="45.63002" lon="6.20603">
        <ele>1025.41</ele>
        <time>2014-06-07T08:33:11Z</time>
      </trkpt>
      <trkpt lat="45.6302" lon="6.20606">
        <ele>1027.74</ele>
        <time>2014-06-07T08:33:29Z</time>
      </trkpt>
      <trkpt lat="45.63038" lon="6.20602">
        <ele>1033.9</ele>
        <time>2014-06-07T08:33:53Z</time>
      </trkpt>
      <trkpt lat="45.63056" lon="6.206">
        <ele>1035.49</ele>
        <time>2014-06-07T08:34:24Z</time>
      </trkpt>
      <trkpt lat="45.63071" lon="6.20584">
        <ele>1041.58</ele>
        <time>2014-06-07T08:34:59Z</time>
      </trkpt>
      <trkpt lat="45.63059" lon="6.20604">
        <ele>1036.36</ele>
        <time>2014-06-07T08:36:03Z</time>
      </trkpt>
      <trkpt lat="45.63054" lon="6.20629">
        <ele>1037.37</ele>
        <time>2014-06-07T08:36:24Z</time>
      </trkpt>
      <trkpt lat="45.6304" lon="6.20646">
        <ele>1040.91</ele>
        <time>2014-06-07T08:36:42Z</time>
      </trkpt>
      <trkpt lat="45.63024" lon="6.20658">
        <ele>1045.26</ele>
        <time>2014-06-07T08:37:00Z</time>
      </trkpt>
      <trkpt lat="45.63007" lon="6.20667">
        <ele>1048.25</ele>
        <time>2014-06-07T08:37:19Z</time>
      </trkpt>
      <trkpt lat="45.62989" lon="6.20675">
        <ele>1050.52</ele>
        <time>2014-06-07T08:37:35Z</time>
      </trkpt>
      <trkpt lat="45.62974" lon="6.20688">
        <ele>1049.43</ele>
        <time>2014-06-07T08:37:55Z</time>
      </trkpt>
      <trkpt lat="45.62961" lon="6.20707">
        <ele>1044.61</ele>
        <time>2014-06-07T08:38:20Z</time>
      </trkpt>
      <trkpt lat="45.62946" lon="6.20725">
        <ele>1054.19</ele>
        <time>2014-06-07T08:38:38Z</time>
      </trkpt>
      <trkpt lat="45.6293" lon="6.20738">
        <ele>1056.64</ele>
        <time>2014-06-07T08:38:55Z</time>
      </trkpt>
      <trkpt lat="45.62915" lon="6.20753">
        <ele>1057.95</ele>
        <time>2014-06-07T08:39:12Z</time>
      </trkpt>
      <trkpt lat="45.629" lon="6.2077">
        <ele>1061.24</ele>
        <time>2014-06-07T08:39:30Z</time>
      </trkpt>
      <trkpt lat="45.62887" lon="6.20787">
        <ele>1062.15</ele>
        <time>2014-06-07T08:39:50Z</time>
      </trkpt>
      <trkpt lat="45.62876" lon="6.20808">
        <ele>1065.34</ele>
        <time>2014-06-07T08:40:09Z</time>
      </trkpt>
      <trkpt lat="45.62871" lon="6.20833">
        <ele>1064.22</ele>
        <time>2014-06-07T08:40:27Z</time>
      </trkpt>
      <trkpt lat="45.6286" lon="6.20854">
        <ele>1065.87</ele>
        <time>2014-06-07T08:40:47Z</time>
      </trkpt>
      <trkpt lat="45.62842" lon="6.20863">
        <ele>1069.26</ele>
        <time>2014-06-07T08:41:07Z</time>
      </trkpt>
      <trkpt lat="45.62824" lon="6.20872">
        <ele>1074.96</ele>
        <time>2014-06-07T08:41:25Z</time>
      </trkpt>
      <trkpt lat="45.62808" lon="6.20884">
        <ele>1075.89</ele>
        <time>2014-06-07T08:41:44Z</time>
      </trkpt>
      <trkpt lat="45.62794" lon="6.20901">
        <ele>1076.8</ele>
        <time>2014-06-07T08:42:01Z</time>
      </trkpt>
      <trkpt lat="45.6278" lon="6.2092">
        <ele>1078.77</ele>
        <time>2014-06-07T08:42:20Z</time>
      </trkpt>
      <trkpt lat="45.62765" lon="6.20934">
        <ele>1080.28</ele>
        <time>2014-06-07T08:42:37Z</time>
      </trkpt>
      <trkpt lat="45.62752" lon="6.20955">
        <ele>1081.81</ele>
        <time>2014-06-07T08:42:52Z</time>
      </trkpt>
      <trkpt lat="45.6274" lon="6.20974">
        <ele>1084.64</ele>
        <time>2014-06-07T08:43:08Z</time>
      </trkpt>
      <trkpt lat="45.62725" lon="6.20989">
        <ele>1086.09</ele>
        <time>2014-06-07T08:43:24Z</time>
      </trkpt>
      <trkpt lat="45.62711" lon="6.21006">
        <ele>1089.27</ele>
        <time>2014-06-07T08:43:42Z</time>
      </trkpt>
      <trkpt lat="45.62696" lon="6.2102">
        <ele>1089.22</ele>
        <time>2014-06-07T08:44:00Z</time>
      </trkpt>
      <trkpt lat="45.62681" lon="6.21035">
        <ele>1091.55</ele>
        <time>2014-06-07T08:44:18Z</time>
      </trkpt>
      <trkpt lat="45.62666" lon="6.21053">
        <ele>1093.62</ele>
        <time>2014-06-07T08:44:37Z</time>
      </trkpt>
      <trkpt lat="45.62649" lon="6.21061">
        <ele>1094.92</ele>
        <time>2014-06-07T08:44:55Z</time>
      </trkpt>
      <trkpt lat="45.6264" lon="6.21084">
        <ele>1096.37</ele>
        <time>2014-06-07T08:45:32Z</time>
      </trkpt>
      <trkpt lat="45.62628" lon="6.21102">
        <ele>1102.31</ele>
        <time>2014-06-07T08:45:57Z</time>
      </trkpt>
      <trkpt lat="45.62618" lon="6.21124">
        <ele>1111.9</ele>
        <time>2014-06-07T08:46:30Z</time>
      </trkpt>
      <trkpt lat="45.62611" lon="6.21149">
        <ele>1118.04</ele>
        <time>2014-06-07T08:46:56Z</time>
      </trkpt>
      <trkpt lat="45.62602" lon="6.21172">
        <ele>1118.87</ele>
        <time>2014-06-07T08:47:21Z</time>
      </trkpt>
      <trkpt lat="45.62599" lon="6.21198">
        <ele>1126.76</ele>
        <time>2014-06-07T08:47:56Z</time>
      </trkpt>
      <trkpt lat="45.62585" lon="6.21216">
        <ele>1144.6</ele>
        <time>2014-06-07T08:48:37Z</time>
      </trkpt>
      <trkpt lat="45.62575" lon="6.21238">
        <ele>1151.47</ele>
        <time>2014-06-07T08:48:58Z</time>
      </trkpt>
      <trkpt lat="45.62568" lon="6.21262">
        <ele>1148.17</ele>
        <time>2014-06-07T08:49:19Z</time>
      </trkpt>
      <trkpt lat="45.62556" lon="6.21281">
        <ele>1154.45</ele>
        <time>2014-06-07T08:49:44Z</time>
      </trkpt>
      <trkpt lat="45.6254" lon="6.21295">
        <ele>1161.41</ele>
        <time>2014-06-07T08:50:16Z</time>
      </trkpt>
      <trkpt lat="45.62531" lon="6.21318">
        <ele>1162.27</ele>
        <time>2014-06-07T08:50:40Z</time>
      </trkpt>
      <trkpt lat="45.62522" lon="6.21341">
        <ele>1166.52</ele>
        <time>2014-06-07T08:51:09Z</time>
      </trkpt>
      <trkpt lat="45.6251" lon="6.21361">
        <ele>1169.3</ele>
        <time>2014-06-07T08:51:31Z</time>
      </trkpt>
      <trkpt lat="45.62493" lon="6.21368">
        <ele>1179.43</ele>
        <time>2014-06-07T08:52:00Z</time>
      </trkpt>
      <trkpt lat="45.62478" lon="6.21383">
        <ele>1180.19</ele>
        <time>2014-06-07T08:52:23Z</time>
      </trkpt>
      <trkpt lat="45.62464" lon="6.21399">
        <ele>1185.91</ele>
        <time>2014-06-07T08:52:53Z</time>
      </trkpt>
      <trkpt lat="45.62448" lon="6.21411">
        <ele>1189.49</ele>
        <time>2014-06-07T08:53:24Z</time>
      </trkpt>
      <trkpt lat="45.62432" lon="6.21424">
        <ele>1186.11</ele>
        <time>2014-06-07T08:53:52Z</time>
      </trkpt>
      <trkpt lat="45.62413" lon="6.21428">
        <ele>1185.07</ele>
        <time>2014-06-07T08:54:17Z</time>
      </trkpt>
      <trkpt lat="45.62395" lon="6.21428">
        <ele>1186.94</ele>
        <time>2014-06-07T08:54:42Z</time>
      </trkpt>
      <trkpt lat="45.62377" lon="6.21436">
        <ele>1199.93</ele>
        <time>2014-06-07T08:55:29Z</time>
      </trkpt>
      <trkpt lat="45.62362" lon="6.2145">
        <ele>1215.06</ele>
        <time>2014-06-07T08:56:18Z</time>
      </trkpt>
      <trkpt lat="45.62352" lon="6.21472">
        <ele>1219.77</ele>
        <time>2014-06-07T08:56:57Z</time>
      </trkpt>
      <trkpt lat="45.62334" lon="6.21473">
        <ele>1224.43</ele>
        <time>2014-06-07T08:57:24Z</time>
      </trkpt>
      <trkpt lat="45.62317" lon="6.21482">
        <ele>1224.58</ele>
        <time>2014-06-07T08:57:48Z</time>
      </trkpt>
      <trkpt lat="45.62307" lon="6.21504">
        <ele>1223.52</ele>
        <time>2014-06-07T08:58:14Z</time>
      </trkpt>
      <trkpt lat="45.62293" lon="6.21522">
        <ele>1233.41</ele>
        <time>2014-06-07T08:58:59Z</time>
      </trkpt>
      <trkpt lat="45.62275" lon="6.21528">
        <ele>1233.9</ele>
        <time>2014-06-07T08:59:31Z</time>
      </trkpt>
      <trkpt lat="45.62258" lon="6.21532">
        <ele>1241.42</ele>
        <time>2014-06-07T09:00:04Z</time>
      </trkpt>
      <trkpt lat="45.6224" lon="6.21538">
        <ele>1251.62</ele>
        <time>2014-06-07T09:00:45Z</time>
      </trkpt>
      <trkpt lat="45.62221" lon="6.21538">
        <ele>1257.81</ele>
        <time>2014-06-07T09:01:20Z</time>
      </trkpt>
      <trkpt lat="45.62203" lon="6.21544">
        <ele>1260.58</ele>
        <time>2014-06-07T09:01:52Z</time>
      </trkpt>
      <trkpt lat="45.62185" lon="6.21543">
        <ele>1271.43</ele>
        <time>2014-06-07T09:02:46Z</time>
      </trkpt>
      <trkpt lat="45.62167" lon="6.21544">
        <ele>1278.41</ele>
        <time>2014-06-07T09:03:28Z</time>
      </trkpt>
      <trkpt lat="45.62148" lon="6.21543">
        <ele>1290.97</ele>
        <time>2014-06-07T09:04:14Z</time>
      </trkpt>
      <trkpt lat="45.6213" lon="6.21547">
        <ele>1300.58</ele>
        <time>2014-06-07T09:04:55Z</time>
      </trkpt>
      <trkpt lat="45.62112" lon="6.21543">
        <ele>1309.56</ele>
        <time>2014-06-07T09:05:47Z</time>
      </trkpt>
      <trkpt lat="45.62096" lon="6.21534">
        <ele>1317.25</ele>
        <time>2014-06-07T09:06:37Z</time>
      </trkpt>
      <trkpt lat="45.62079" lon="6.21524">
        <ele>1321.43</ele>
        <time>2014-06-07T09:07:16Z</time>
      </trkpt>
      <trkpt lat="45.62061" lon="6.21519">
        <ele>1328</ele>
        <time>2014-06-07T09:08:04Z</time>
      </trkpt>
      <trkpt lat="45.62046" lon="6.21533">
        <ele>1321.23</ele>
        <time>2014-06-07T09:08:37Z</time>
      </trkpt>
      <trkpt lat="45.62039" lon="6.21558">
        <ele>1336.68</ele>
        <time>2014-06-07T09:11:43Z</time>
      </trkpt>
      <trkpt lat="45.62053" lon="6.21576">
        <ele>1341.33</ele>
        <time>2014-06-07T09:12:58Z</time>
      </trkpt>
      <trkpt lat="45.62067" lon="6.21592">
        <ele>1345.99</ele>
        <time>2014-06-07T09:13:29Z</time>
      </trkpt>
      <trkpt lat="45.6208" lon="6.21611">
        <ele>1351.49</ele>
        <time>2014-06-07T09:14:01Z</time>
      </trkpt>
      <trkpt lat="45.62092" lon="6.21631">
        <ele>1353.43</ele>
        <time>2014-06-07T09:14:25Z</time>
      </trkpt>
      <trkpt lat="45.62101" lon="6.21654">
        <ele>1353.23</ele>
        <time>2014-06-07T09:14:45Z</time>
      </trkpt>
      <trkpt lat="45.62115" lon="6.2167">
        <ele>1357.91</ele>
        <time>2014-06-07T09:15:14Z</time>
      </trkpt>
      <trkpt lat="45.62129" lon="6.21688">
        <ele>1362.75</ele>
        <time>2014-06-07T09:15:42Z</time>
      </trkpt>
      <trkpt lat="45.62144" lon="6.21702">
        <ele>1364.53</ele>
        <time>2014-06-07T09:15:57Z</time>
      </trkpt>
      <trkpt lat="45.62158" lon="6.21718">
        <ele>1367.34</ele>
        <time>2014-06-07T09:16:19Z</time>
      </trkpt>
      <trkpt lat="45.62173" lon="6.21733">
        <ele>1366.64</ele>
        <time>2014-06-07T09:16:32Z</time>
      </trkpt>
      <trkpt lat="45.62188" lon="6.21749">
        <ele>1368.77</ele>
        <time>2014-06-07T09:16:48Z</time>
      </trkpt>
      <trkpt lat="45.62204" lon="6.21763">
        <ele>1374.04</ele>
        <time>2014-06-07T09:17:15Z</time>
      </trkpt>
      <trkpt lat="45.62219" lon="6.21778">
        <ele>1374.77</ele>
        <time>2014-06-07T09:17:33Z</time>
      </trkpt>
      <trkpt lat="45.62233" lon="6.21795">
        <ele>1378.88</ele>
        <time>2014-06-07T09:17:56Z</time>
      </trkpt>
      <trkpt lat="45.62248" lon="6.21809">
        <ele>1384.85</ele>
        <time>2014-06-07T09:18:22Z</time>
      </trkpt>
      <trkpt lat="45.62261" lon="6.21827">
        <ele>1385.96</ele>
        <time>2014-06-07T09:18:57Z</time>
      </trkpt>
      <trkpt lat="45.62274" lon="6.21846">
        <ele>1392.38</ele>
        <time>2014-06-07T09:19:30Z</time>
      </trkpt>
      <trkpt lat="45.62287" lon="6.21864">
        <ele>1397.32</ele>
        <time>2014-06-07T09:20:15Z</time>
      </trkpt>
      <trkpt lat="45.62302" lon="6.2188">
        <ele>1401.1</ele>
        <time>2014-06-07T09:20:44Z</time>
      </trkpt>
      <trkpt lat="45.62315" lon="6.21898">
        <ele>1400.3</ele>
        <time>2014-06-07T09:21:09Z</time>
      </trkpt>
      <trkpt lat="45.62331" lon="6.21912">
        <ele>1405.52</ele>
        <time>2014-06-07T09:21:35Z</time>
      </trkpt>
      <trkpt lat="45.62348" lon="6.2192">
        <ele>1411.3</ele>
        <time>2014-06-07T09:21:59Z</time>
      </trkpt>
      <trkpt lat="45.62366" lon="6.21929">
        <ele>1414.75</ele>
        <time>2014-06-07T09:22:25Z</time>
      </trkpt>
      <trkpt lat="45.62352" lon="6.21946">
        <ele>1436.79</ele>
        <time>2014-06-07T09:23:55Z</time>
      </trkpt>
      <trkpt lat="45.62335" lon="6.21956">
        <ele>1438.89</ele>
        <time>2014-06-07T09:24:27Z</time>
      </trkpt>
      <trkpt lat="45.62317" lon="6.21953">
        <ele>1440.56</ele>
        <time>2014-06-07T09:24:54Z</time>
      </trkpt>
      <trkpt lat="45.62299" lon="6.21953">
        <ele>1444.75</ele>
        <time>2014-06-07T09:25:24Z</time>
      </trkpt>
      <trkpt lat="45.62296" lon="6.21978">
        <ele>1450.64</ele>
        <time>2014-06-07T09:26:14Z</time>
      </trkpt>
      <trkpt lat="45.6231" lon="6.21995">
        <ele>1458.41</ele>
        <time>2014-06-07T09:26:43Z</time>
      </trkpt>
      <trkpt lat="45.62324" lon="6.22013">
        <ele>1463.82</ele>
        <time>2014-06-07T09:27:09Z</time>
      </trkpt>
      <trkpt lat="45.62337" lon="6.2203">
        <ele>1461.99</ele>
        <time>2014-06-07T09:27:42Z</time>
      </trkpt>
      <trkpt lat="45.62352" lon="6.22046">
        <ele>1463.46</ele>
        <time>2014-06-07T09:28:04Z</time>
      </trkpt>
      <trkpt lat="45.62345" lon="6.2207">
        <ele>1481.96</ele>
        <time>2014-06-07T09:29:40Z</time>
      </trkpt>
      <trkpt lat="45.62328" lon="6.22077">
        <ele>1486.66</ele>
        <time>2014-06-07T09:30:18Z</time>
      </trkpt>
      <trkpt lat="45.6231" lon="6.22079">
        <ele>1490.87</ele>
        <time>2014-06-07T09:30:54Z</time>
      </trkpt>
      <trkpt lat="45.62299" lon="6.221">
        <ele>1498.31</ele>
        <time>2014-06-07T09:32:14Z</time>
      </trkpt>
      <trkpt lat="45.6231" lon="6.22121">
        <ele>1503.65</ele>
        <time>2014-06-07T09:32:46Z</time>
      </trkpt>
      <trkpt lat="45.62325" lon="6.22138">
        <ele>1501.98</ele>
        <time>2014-06-07T09:33:14Z</time>
      </trkpt>
      <trkpt lat="45.62338" lon="6.22157">
        <ele>1507.15</ele>
        <time>2014-06-07T09:33:46Z</time>
      </trkpt>
      <trkpt lat="45.6235" lon="6.22175">
        <ele>1513.89</ele>
        <time>2014-06-07T09:34:30Z</time>
      </trkpt>
      <trkpt lat="45.62368" lon="6.22184">
        <ele>1518.5</ele>
        <time>2014-06-07T09:34:54Z</time>
      </trkpt>
      <trkpt lat="45.62386" lon="6.22179">
        <ele>1532.19</ele>
        <time>2014-06-07T09:35:21Z</time>
      </trkpt>
      <trkpt lat="45.62402" lon="6.22166">
        <ele>1538.72</ele>
        <time>2014-06-07T09:35:43Z</time>
      </trkpt>
      <trkpt lat="45.6242" lon="6.22169">
        <ele>1540.72</ele>
        <time>2014-06-07T09:36:16Z</time>
      </trkpt>
      <trkpt lat="45.62407" lon="6.22188">
        <ele>1543.16</ele>
        <time>2014-06-07T09:37:44Z</time>
      </trkpt>
      <trkpt lat="45.62397" lon="6.22209">
        <ele>1550.79</ele>
        <time>2014-06-07T09:38:10Z</time>
      </trkpt>
      <trkpt lat="45.62385" lon="6.22229">
        <ele>1556.08</ele>
        <time>2014-06-07T09:39:09Z</time>
      </trkpt>
      <trkpt lat="45.62369" lon="6.22242">
        <ele>1563.57</ele>
        <time>2014-06-07T09:39:45Z</time>
      </trkpt>
      <trkpt lat="45.62355" lon="6.22258">
        <ele>1569.36</ele>
        <time>2014-06-07T09:40:19Z</time>
      </trkpt>
      <trkpt lat="45.62338" lon="6.22268">
        <ele>1574.47</ele>
        <time>2014-06-07T09:40:56Z</time>
      </trkpt>
      <trkpt lat="45.62321" lon="6.22275">
        <ele>1577.44</ele>
        <time>2014-06-07T09:41:27Z</time>
      </trkpt>
      <trkpt lat="45.62303" lon="6.22268">
        <ele>1581.56</ele>
        <time>2014-06-07T09:42:02Z</time>
      </trkpt>
      <trkpt lat="45.623" lon="6.22294">
        <ele>1589.39</ele>
        <time>2014-06-07T09:43:07Z</time>
      </trkpt>
      <trkpt lat="45.62313" lon="6.22311">
        <ele>1589.49</ele>
        <time>2014-06-07T09:43:39Z</time>
      </trkpt>
      <trkpt lat="45.6233" lon="6.22325">
        <ele>1596.26</ele>
        <time>2014-06-07T09:44:05Z</time>
      </trkpt>
      <trkpt lat="45.62345" lon="6.22339">
        <ele>1603.22</ele>
        <time>2014-06-07T09:44:59Z</time>
      </trkpt>
      <trkpt lat="45.6235" lon="6.22365">
        <ele>1611.09</ele>
        <time>2014-06-07T09:46:32Z</time>
      </trkpt>
      <trkpt lat="45.6235" lon="6.22391">
        <ele>1616.85</ele>
        <time>2014-06-07T09:46:57Z</time>
      </trkpt>
      <trkpt lat="45.62349" lon="6.22417">
        <ele>1625.24</ele>
        <time>2014-06-07T09:47:31Z</time>
      </trkpt>
      <trkpt lat="45.62356" lon="6.22441">
        <ele>1628.72</ele>
        <time>2014-06-07T09:48:00Z</time>
      </trkpt>
      <trkpt lat="45.62363" lon="6.22465">
        <ele>1632.65</ele>
        <time>2014-06-07T09:48:26Z</time>
      </trkpt>
      <trkpt lat="45.62363" lon="6.22491">
        <ele>1635.4</ele>
        <time>2014-06-07T09:48:55Z</time>
      </trkpt>
      <trkpt lat="45.62367" lon="6.22517">
        <ele>1638.42</ele>
        <time>2014-06-07T09:50:11Z</time>
      </trkpt>
      <trkpt lat="45.62368" lon="6.22543">
        <ele>1643.19</ele>
        <time>2014-06-07T09:50:55Z</time>
      </trkpt>
      <trkpt lat="45.62371" lon="6.22569">
        <ele>1647.89</ele>
        <time>2014-06-07T09:51:22Z</time>
      </trkpt>
      <trkpt lat="45.62368" lon="6.22595">
        <ele>1649.89</ele>
        <time>2014-06-07T09:51:47Z</time>
      </trkpt>
      <trkpt lat="45.6237" lon="6.22621">
        <ele>1649.87</ele>
        <time>2014-06-07T09:52:07Z</time>
      </trkpt>
      <trkpt lat="45.62372" lon="6.22647">
        <ele>1652.48</ele>
        <time>2014-06-07T09:52:31Z</time>
      </trkpt>
      <trkpt lat="45.62365" lon="6.22671">
        <ele>1658.33</ele>
        <time>2014-06-07T09:52:58Z</time>
      </trkpt>
      <trkpt lat="45.6235" lon="6.22686">
        <ele>1664.34</ele>
        <time>2014-06-07T09:53:27Z</time>
      </trkpt>
      <trkpt lat="45.62338" lon="6.22706">
        <ele>1670.52</ele>
        <time>2014-06-07T09:53:59Z</time>
      </trkpt>
      <trkpt lat="45.62322" lon="6.22718">
        <ele>1674.31</ele>
        <time>2014-06-07T09:54:21Z</time>
      </trkpt>
      <trkpt lat="45.62303" lon="6.22714">
        <ele>1678.69</ele>
        <time>2014-06-07T09:54:53Z</time>
      </trkpt>
      <trkpt lat="45.62286" lon="6.22706">
        <ele>1684.34</ele>
        <time>2014-06-07T09:55:21Z</time>
      </trkpt>
      <trkpt lat="45.62279" lon="6.22682">
        <ele>1686.93</ele>
        <time>2014-06-07T09:55:56Z</time>
      </trkpt>
      <trkpt lat="45.62261" lon="6.2268">
        <ele>1698.75</ele>
        <time>2014-06-07T09:56:39Z</time>
      </trkpt>
      <trkpt lat="45.62242" lon="6.22682">
        <ele>1699.96</ele>
        <time>2014-06-07T09:56:58Z</time>
      </trkpt>
      <trkpt lat="45.62223" lon="6.22686">
        <ele>1699.96</ele>
        <time>2014-06-07T09:57:17Z</time>
      </trkpt>
      <trkpt lat="45.62205" lon="6.2269">
        <ele>1697.6</ele>
        <time>2014-06-07T09:57:34Z</time>
      </trkpt>
      <trkpt lat="45.62194" lon="6.22713">
        <ele>1701.18</ele>
        <time>2014-06-07T09:57:53Z</time>
      </trkpt>
      <trkpt lat="45.6219" lon="6.22738">
        <ele>1706.2</ele>
        <time>2014-06-07T09:58:10Z</time>
      </trkpt>
      <trkpt lat="45.62184" lon="6.22763">
        <ele>1705.27</ele>
        <time>2014-06-07T09:58:27Z</time>
      </trkpt>
      <trkpt lat="45.62181" lon="6.22788">
        <ele>1702.04</ele>
        <time>2014-06-07T09:58:48Z</time>
      </trkpt>
      <trkpt lat="45.62178" lon="6.22814">
        <ele>1700.07</ele>
        <time>2014-06-07T09:59:14Z</time>
      </trkpt>
      <trkpt lat="45.62176" lon="6.2284">
        <ele>1697.97</ele>
        <time>2014-06-07T09:59:42Z</time>
      </trkpt>
      <trkpt lat="45.62183" lon="6.22864">
        <ele>1702.16</ele>
        <time>2014-06-07T10:00:08Z</time>
      </trkpt>
      <trkpt lat="45.62179" lon="6.2289">
        <ele>1705.39</ele>
        <time>2014-06-07T10:00:33Z</time>
      </trkpt>
      <trkpt lat="45.62165" lon="6.22908">
        <ele>1708.96</ele>
        <time>2014-06-07T10:00:56Z</time>
      </trkpt>
      <trkpt lat="45.62148" lon="6.22916">
        <ele>1713.74</ele>
        <time>2014-06-07T10:01:17Z</time>
      </trkpt>
      <trkpt lat="45.6213" lon="6.22919">
        <ele>1718.46</ele>
        <time>2014-06-07T10:01:41Z</time>
      </trkpt>
      <trkpt lat="45.62113" lon="6.22929">
        <ele>1719.38</ele>
        <time>2014-06-07T10:01:57Z</time>
      </trkpt>
      <trkpt lat="45.62096" lon="6.22941">
        <ele>1721.34</ele>
        <time>2014-06-07T10:02:14Z</time>
      </trkpt>
      <trkpt lat="45.6208" lon="6.22954">
        <ele>1722.39</ele>
        <time>2014-06-07T10:02:31Z</time>
      </trkpt>
      <trkpt lat="45.62064" lon="6.22966">
        <ele>1724.12</ele>
        <time>2014-06-07T10:02:48Z</time>
      </trkpt>
      <trkpt lat="45.62055" lon="6.22989">
        <ele>1727.71</ele>
        <time>2014-06-07T10:03:24Z</time>
      </trkpt>
      <trkpt lat="45.6205" lon="6.23015">
        <ele>1729.27</ele>
        <time>2014-06-07T10:03:43Z</time>
      </trkpt>
      <trkpt lat="45.62043" lon="6.2304">
        <ele>1728.28</ele>
        <time>2014-06-07T10:04:03Z</time>
      </trkpt>
      <trkpt lat="45.62028" lon="6.23055">
        <ele>1727.86</ele>
        <time>2014-06-07T10:04:32Z</time>
      </trkpt>
      <trkpt lat="45.62012" lon="6.23067">
        <ele>1731.39</ele>
        <time>2014-06-07T10:05:01Z</time>
      </trkpt>
      <trkpt lat="45.61999" lon="6.23087">
        <ele>1729.95</ele>
        <time>2014-06-07T10:05:24Z</time>
      </trkpt>
      <trkpt lat="45.62002" lon="6.23112">
        <ele>1730.99</ele>
        <time>2014-06-07T10:05:47Z</time>
      </trkpt>
      <trkpt lat="45.62005" lon="6.23138">
        <ele>1733.42</ele>
        <time>2014-06-07T10:06:22Z</time>
      </trkpt>
      <trkpt lat="45.62008" lon="6.23163">
        <ele>1738.46</ele>
        <time>2014-06-07T10:06:47Z</time>
      </trkpt>
      <trkpt lat="45.62007" lon="6.23189">
        <ele>1739.52</ele>
        <time>2014-06-07T10:07:12Z</time>
      </trkpt>
      <trkpt lat="45.62011" lon="6.23215">
        <ele>1751.66</ele>
        <time>2014-06-07T10:08:28Z</time>
      </trkpt>
      <trkpt lat="45.61999" lon="6.23236">
        <ele>1761.2</ele>
        <time>2014-06-07T10:08:51Z</time>
      </trkpt>
      <trkpt lat="45.61988" lon="6.23257">
        <ele>1757.68</ele>
        <time>2014-06-07T10:09:13Z</time>
      </trkpt>
      <trkpt lat="45.61981" lon="6.23282">
        <ele>1758.03</ele>
        <time>2014-06-07T10:09:30Z</time>
      </trkpt>
      <trkpt lat="45.61978" lon="6.23307">
        <ele>1757.36</ele>
        <time>2014-06-07T10:10:01Z</time>
      </trkpt>
      <trkpt lat="45.61973" lon="6.23332">
        <ele>1761</ele>
        <time>2014-06-07T10:10:20Z</time>
      </trkpt>
      <trkpt lat="45.6197" lon="6.23358">
        <ele>1756.92</ele>
        <time>2014-06-07T10:10:44Z</time>
      </trkpt>
      <trkpt lat="45.61977" lon="6.23383">
        <ele>1765.58</ele>
        <time>2014-06-07T10:11:10Z</time>
      </trkpt>
      <trkpt lat="45.61992" lon="6.23398">
        <ele>1766.71</ele>
        <time>2014-06-07T10:11:37Z</time>
      </trkpt>
      <trkpt lat="45.6201" lon="6.23399">
        <ele>1761.47</ele>
        <time>2014-06-07T10:11:54Z</time>
      </trkpt>
      <trkpt lat="45.61992" lon="6.23405">
        <ele>1766.82</ele>
        <time>2014-06-07T10:12:34Z</time>
      </trkpt>
      <trkpt lat="45.6198" lon="6.23424">
        <ele>1771.68</ele>
        <time>2014-06-07T10:13:20Z</time>
      </trkpt>
      <trkpt lat="45.61974" lon="6.23449">
        <ele>1772.62</ele>
        <time>2014-06-07T10:13:44Z</time>
      </trkpt>
      <trkpt lat="45.61968" lon="6.23473">
        <ele>1776.26</ele>
        <time>2014-06-07T10:14:07Z</time>
      </trkpt>
      <trkpt lat="45.6196" lon="6.23497">
        <ele>1779.34</ele>
        <time>2014-06-07T10:14:58Z</time>
      </trkpt>
      <trkpt lat="45.61953" lon="6.23522">
        <ele>1785.87</ele>
        <time>2014-06-07T10:15:28Z</time>
      </trkpt>
      <trkpt lat="45.61938" lon="6.23537">
        <ele>1789.05</ele>
        <time>2014-06-07T10:16:26Z</time>
      </trkpt>
      <trkpt lat="45.61928" lon="6.23559">
        <ele>1797.67</ele>
        <time>2014-06-07T10:16:56Z</time>
      </trkpt>
      <trkpt lat="45.61916" lon="6.23579">
        <ele>1797.31</ele>
        <time>2014-06-07T10:17:31Z</time>
      </trkpt>
      <trkpt lat="45.61902" lon="6.23596">
        <ele>1802.51</ele>
        <time>2014-06-07T10:17:58Z</time>
      </trkpt>
      <trkpt lat="45.61885" lon="6.23605">
        <ele>1804.76</ele>
        <time>2014-06-07T10:18:23Z</time>
      </trkpt>
      <trkpt lat="45.61866" lon="6.23605">
        <ele>1805.79</ele>
        <time>2014-06-07T10:18:57Z</time>
      </trkpt>
      <trkpt lat="45.61852" lon="6.23589">
        <ele>1813.62</ele>
        <time>2014-06-07T10:20:22Z</time>
      </trkpt>
      <trkpt lat="45.61834" lon="6.23582">
        <ele>1819.4</ele>
        <time>2014-06-07T10:20:46Z</time>
      </trkpt>
      <trkpt lat="45.6182" lon="6.23565">
        <ele>1824.17</ele>
        <time>2014-06-07T10:21:15Z</time>
      </trkpt>
      <trkpt lat="45.61838" lon="6.23571">
        <ele>1819.41</ele>
        <time>2014-06-07T10:24:44Z</time>
      </trkpt>
      <trkpt lat="45.61851" lon="6.23588">
        <ele>1815.69</ele>
        <time>2014-06-07T10:25:42Z</time>
      </trkpt>
      <trkpt lat="45.61865" lon="6.23605">
        <ele>1810.08</ele>
        <time>2014-06-07T10:26:04Z</time>
      </trkpt>
      <trkpt lat="45.6188" lon="6.23621">
        <ele>1809.05</ele>
        <time>2014-06-07T10:26:28Z</time>
      </trkpt>
      <trkpt lat="45.61898" lon="6.23627">
        <ele>1804.67</ele>
        <time>2014-06-07T10:26:47Z</time>
      </trkpt>
      <trkpt lat="45.61916" lon="6.23632">
        <ele>1801.53</ele>
        <time>2014-06-07T10:27:05Z</time>
      </trkpt>
      <trkpt lat="45.61935" lon="6.23631">
        <ele>1802.05</ele>
        <time>2014-06-07T10:27:22Z</time>
      </trkpt>
      <trkpt lat="45.61953" lon="6.2363">
        <ele>1798.65</ele>
        <time>2014-06-07T10:27:41Z</time>
      </trkpt>
      <trkpt lat="45.6197" lon="6.23618">
        <ele>1805.59</ele>
        <time>2014-06-07T10:28:23Z</time>
      </trkpt>
      <trkpt lat="45.61988" lon="6.23616">
        <ele>1804.76</ele>
        <time>2014-06-07T10:28:55Z</time>
      </trkpt>
      <trkpt lat="45.62006" lon="6.23623">
        <ele>1799.87</ele>
        <time>2014-06-07T10:29:33Z</time>
      </trkpt>
      <trkpt lat="45.62024" lon="6.23617">
        <ele>1795.79</ele>
        <time>2014-06-07T10:29:53Z</time>
      </trkpt>
      <trkpt lat="45.62018" lon="6.23593">
        <ele>1798.89</ele>
        <time>2014-06-07T10:30:45Z</time>
      </trkpt>
      <trkpt lat="45.62005" lon="6.23574">
        <ele>1795.1</ele>
        <time>2014-06-07T10:31:03Z</time>
      </trkpt>
      <trkpt lat="45.62022" lon="6.23566">
        <ele>1793.38</ele>
        <time>2014-06-07T10:31:31Z</time>
      </trkpt>
      <trkpt lat="45.62038" lon="6.23554">
        <ele>1804.36</ele>
        <time>2014-06-07T10:32:02Z</time>
      </trkpt>
      <trkpt lat="45.62041" lon="6.23528">
        <ele>1805.99</ele>
        <time>2014-06-07T10:32:32Z</time>
      </trkpt>
      <trkpt lat="45.62057" lon="6.23514">
        <ele>1814.21</ele>
        <time>2014-06-07T10:33:29Z</time>
      </trkpt>
      <trkpt lat="45.62072" lon="6.23499">
        <ele>1821.35</ele>
        <time>2014-06-07T10:34:00Z</time>
      </trkpt>
      <trkpt lat="45.62087" lon="6.23484">
        <ele>1825.18</ele>
        <time>2014-06-07T10:34:29Z</time>
      </trkpt>
      <trkpt lat="45.62104" lon="6.23475">
        <ele>1828.8</ele>
        <time>2014-06-07T10:34:59Z</time>
      </trkpt>
      <trkpt lat="45.6212" lon="6.23464">
        <ele>1840.32</ele>
        <time>2014-06-07T10:35:55Z</time>
      </trkpt>
      <trkpt lat="45.62138" lon="6.23455">
        <ele>1847.94</ele>
        <time>2014-06-07T10:36:22Z</time>
      </trkpt>
      <trkpt lat="45.62156" lon="6.23459">
        <ele>1862.28</ele>
        <time>2014-06-07T10:36:54Z</time>
      </trkpt>
      <trkpt lat="45.62174" lon="6.23461">
        <ele>1861.66</ele>
        <time>2014-06-07T10:37:40Z</time>
      </trkpt>
      <trkpt lat="45.62191" lon="6.23471">
        <ele>1870.18</ele>
        <time>2014-06-07T10:38:47Z</time>
      </trkpt>
      <trkpt lat="45.62196" lon="6.23496">
        <ele>1895.27</ele>
        <time>2014-06-07T10:40:22Z</time>
      </trkpt>
      <trkpt lat="45.62193" lon="6.23522">
        <ele>1901.23</ele>
        <time>2014-06-07T10:40:58Z</time>
      </trkpt>
      <trkpt lat="45.62183" lon="6.23543">
        <ele>1908.22</ele>
        <time>2014-06-07T10:41:27Z</time>
      </trkpt>
      <trkpt lat="45.62189" lon="6.23568">
        <ele>1908.34</ele>
        <time>2014-06-07T10:42:11Z</time>
      </trkpt>
      <trkpt lat="45.62206" lon="6.23574">
        <ele>1911.26</ele>
        <time>2014-06-07T10:43:10Z</time>
      </trkpt>
      <trkpt lat="45.62224" lon="6.23565">
        <ele>1919.09</ele>
        <time>2014-06-07T10:43:39Z</time>
      </trkpt>
      <trkpt lat="45.62239" lon="6.23551">
        <ele>1930.38</ele>
        <time>2014-06-07T10:44:09Z</time>
      </trkpt>
      <trkpt lat="45.62257" lon="6.23547">
        <ele>1933.12</ele>
        <time>2014-06-07T10:45:11Z</time>
      </trkpt>
      <trkpt lat="45.62274" lon="6.23557">
        <ele>1932.33</ele>
        <time>2014-06-07T10:45:47Z</time>
      </trkpt>
      <trkpt lat="45.62292" lon="6.23563">
        <ele>1937.18</ele>
        <time>2014-06-07T10:46:13Z</time>
      </trkpt>
      <trkpt lat="45.62309" lon="6.23572">
        <ele>1943.76</ele>
        <time>2014-06-07T10:46:38Z</time>
      </trkpt>
      <trkpt lat="45.62327" lon="6.23578">
        <ele>1948.97</ele>
        <time>2014-06-07T10:47:12Z</time>
      </trkpt>
      <trkpt lat="45.62342" lon="6.23592">
        <ele>1957.6</ele>
        <time>2014-06-07T10:47:59Z</time>
      </trkpt>
      <trkpt lat="45.6236" lon="6.23598">
        <ele>1965.94</ele>
        <time>2014-06-07T10:49:18Z</time>
      </trkpt>
      <trkpt lat="45.62378" lon="6.23592">
        <ele>1978.44</ele>
        <time>2014-06-07T10:50:00Z</time>
      </trkpt>
      <trkpt lat="45.62396" lon="6.23596">
        <ele>1981.12</ele>
        <time>2014-06-07T10:50:25Z</time>
      </trkpt>
      <trkpt lat="45.62414" lon="6.236">
        <ele>1984.49</ele>
        <time>2014-06-07T10:52:34Z</time>
      </trkpt>
      <trkpt lat="45.62433" lon="6.23604">
        <ele>1989.57</ele>
        <time>2014-06-07T10:53:11Z</time>
      </trkpt>
      <trkpt lat="45.6245" lon="6.23612">
        <ele>1999.91</ele>
        <time>2014-06-07T10:53:44Z</time>
      </trkpt>
      <trkpt lat="45.62468" lon="6.2362">
        <ele>2003.03</ele>
        <time>2014-06-07T10:54:28Z</time>
      </trkpt>
      <trkpt lat="45.62486" lon="6.23621">
        <ele>2010.31</ele>
        <time>2014-06-07T10:55:11Z</time>
      </trkpt>
      <trkpt lat="45.62503" lon="6.23628">
        <ele>2021.61</ele>
        <time>2014-06-07T10:55:57Z</time>
      </trkpt>
      <trkpt lat="45.62522" lon="6.23626">
        <ele>2027.94</ele>
        <time>2014-06-07T10:56:59Z</time>
      </trkpt>
      <trkpt lat="45.62539" lon="6.23636">
        <ele>2042.38</ele>
        <time>2014-06-07T10:57:52Z</time>
      </trkpt>
      <trkpt lat="45.62557" lon="6.23631">
        <ele>2048.1</ele>
        <time>2014-06-07T11:02:06Z</time>
      </trkpt>
      <trkpt lat="45.62574" lon="6.2364">
        <ele>2061.43</ele>
        <time>2014-06-07T11:02:59Z</time>
      </trkpt>
      <trkpt lat="45.62592" lon="6.23644">
        <ele>2069.34</ele>
        <time>2014-06-07T11:03:50Z</time>
      </trkpt>
      <trkpt lat="45.6261" lon="6.23647">
        <ele>2077.34</ele>
        <time>2014-06-07T11:04:45Z</time>
      </trkpt>
      <trkpt lat="45.62628" lon="6.2365">
        <ele>2082.4</ele>
        <time>2014-06-07T11:05:19Z</time>
      </trkpt>
      <trkpt lat="45.62646" lon="6.23656">
        <ele>2091.45</ele>
        <time>2014-06-07T11:06:13Z</time>
      </trkpt>
      <trkpt lat="45.62664" lon="6.2366">
        <ele>2103.99</ele>
        <time>2014-06-07T11:06:52Z</time>
      </trkpt>
      <trkpt lat="45.62682" lon="6.23664">
        <ele>2112.05</ele>
        <time>2014-06-07T11:07:46Z</time>
      </trkpt>
      <trkpt lat="45.627" lon="6.23668">
        <ele>2117.42</ele>
        <time>2014-06-07T11:08:31Z</time>
      </trkpt>
      <trkpt lat="45.62718" lon="6.23673">
        <ele>2126.43</ele>
        <time>2014-06-07T11:09:15Z</time>
      </trkpt>
      <trkpt lat="45.62736" lon="6.23678">
        <ele>2134.88</ele>
        <time>2014-06-07T11:09:42Z</time>
      </trkpt>
      <trkpt lat="45.62754" lon="6.23681">
        <ele>2138.04</ele>
        <time>2014-06-07T11:10:16Z</time>
      </trkpt>
      <trkpt lat="45.6277" lon="6.23693">
        <ele>2145.56</ele>
        <time>2014-06-07T11:10:58Z</time>
      </trkpt>
      <trkpt lat="45.62784" lon="6.23711">
        <ele>2152.34</ele>
        <time>2014-06-07T11:11:31Z</time>
      </trkpt>
      <trkpt lat="45.62797" lon="6.23729">
        <ele>2154.79</ele>
        <time>2014-06-07T11:11:56Z</time>
      </trkpt>
      <trkpt lat="45.62783" lon="6.23712">
        <ele>2149.56</ele>
        <time>2014-06-07T11:52:01Z</time>
      </trkpt>
      <trkpt lat="45.62771" lon="6.23692">
        <ele>2142.62</ele>
        <time>2014-06-07T11:52:27Z</time>
      </trkpt>
      <trkpt lat="45.62774" lon="6.23666">
        <ele>2130.49</ele>
        <time>2014-06-07T11:52:59Z</time>
      </trkpt>
      <trkpt lat="45.6279" lon="6.2365">
        <ele>2127.48</ele>
        <time>2014-06-07T11:53:38Z</time>
      </trkpt>
      <trkpt lat="45.62807" lon="6.23642">
        <ele>2122.3</ele>
        <time>2014-06-07T11:53:55Z</time>
      </trkpt>
      <trkpt lat="45.62825" lon="6.23634">
        <ele>2116.33</ele>
        <time>2014-06-07T11:54:24Z</time>
      </trkpt>
      <trkpt lat="45.62819" lon="6.23609">
        <ele>2106.24</ele>
        <time>2014-06-07T11:55:05Z</time>
      </trkpt>
      <trkpt lat="45.62835" lon="6.23595">
        <ele>2097.09</ele>
        <time>2014-06-07T11:56:12Z</time>
      </trkpt>
      <trkpt lat="45.62853" lon="6.23589">
        <ele>2090.11</ele>
        <time>2014-06-07T11:56:30Z</time>
      </trkpt>
      <trkpt lat="45.62869" lon="6.23578">
        <ele>2089.46</ele>
        <time>2014-06-07T11:57:24Z</time>
      </trkpt>
      <trkpt lat="45.62883" lon="6.23561">
        <ele>2082.7</ele>
        <time>2014-06-07T11:57:52Z</time>
      </trkpt>
      <trkpt lat="45.62899" lon="6.23547">
        <ele>2075.23</ele>
        <time>2014-06-07T11:58:19Z</time>
      </trkpt>
      <trkpt lat="45.62914" lon="6.23534">
        <ele>2067.76</ele>
        <time>2014-06-07T11:58:42Z</time>
      </trkpt>
      <trkpt lat="45.62925" lon="6.23513">
        <ele>2062.92</ele>
        <time>2014-06-07T11:59:23Z</time>
      </trkpt>
      <trkpt lat="45.62933" lon="6.2349">
        <ele>2054.44</ele>
        <time>2014-06-07T11:59:58Z</time>
      </trkpt>
      <trkpt lat="45.62939" lon="6.23465">
        <ele>2042.91</ele>
        <time>2014-06-07T12:00:34Z</time>
      </trkpt>
      <trkpt lat="45.62935" lon="6.2344">
        <ele>2034.44</ele>
        <time>2014-06-07T12:01:28Z</time>
      </trkpt>
      <trkpt lat="45.62938" lon="6.23414">
        <ele>2026.9</ele>
        <time>2014-06-07T12:02:00Z</time>
      </trkpt>
      <trkpt lat="45.62937" lon="6.23388">
        <ele>2016.1</ele>
        <time>2014-06-07T12:02:35Z</time>
      </trkpt>
      <trkpt lat="45.62941" lon="6.23363">
        <ele>2008.52</ele>
        <time>2014-06-07T12:04:00Z</time>
      </trkpt>
      <trkpt lat="45.62955" lon="6.23346">
        <ele>2007.81</ele>
        <time>2014-06-07T12:04:20Z</time>
      </trkpt>
      <trkpt lat="45.62966" lon="6.23325">
        <ele>2010.56</ele>
        <time>2014-06-07T12:04:41Z</time>
      </trkpt>
      <trkpt lat="45.62976" lon="6.23304">
        <ele>2007.9</ele>
        <time>2014-06-07T12:05:00Z</time>
      </trkpt>
      <trkpt lat="45.62986" lon="6.23282">
        <ele>2012.6</ele>
        <time>2014-06-07T12:05:57Z</time>
      </trkpt>
      <trkpt lat="45.62987" lon="6.23256">
        <ele>2001.94</ele>
        <time>2014-06-07T12:06:27Z</time>
      </trkpt>
      <trkpt lat="45.62993" lon="6.23231">
        <ele>1999.06</ele>
        <time>2014-06-07T12:07:30Z</time>
      </trkpt>
      <trkpt lat="45.63003" lon="6.2321">
        <ele>2003.44</ele>
        <time>2014-06-07T12:09:24Z</time>
      </trkpt>
      <trkpt lat="45.63008" lon="6.23185">
        <ele>2006.99</ele>
        <time>2014-06-07T12:11:21Z</time>
      </trkpt>
      <trkpt lat="45.63018" lon="6.23162">
        <ele>2010.71</ele>
        <time>2014-06-07T12:11:54Z</time>
      </trkpt>
      <trkpt lat="45.63026" lon="6.23139">
        <ele>2017.36</ele>
        <time>2014-06-07T12:12:53Z</time>
      </trkpt>
      <trkpt lat="45.63044" lon="6.23137">
        <ele>2038.4</ele>
        <time>2014-06-07T12:14:18Z</time>
      </trkpt>
      <trkpt lat="45.63057" lon="6.23119">
        <ele>2057.81</ele>
        <time>2014-06-07T12:16:43Z</time>
      </trkpt>
      <trkpt lat="45.63065" lon="6.23095">
        <ele>2068.63</ele>
        <time>2014-06-07T12:18:12Z</time>
      </trkpt>
      <trkpt lat="45.63079" lon="6.2308">
        <ele>2076.93</ele>
        <time>2014-06-07T12:19:04Z</time>
      </trkpt>
      <trkpt lat="45.63097" lon="6.23076">
        <ele>2093.81</ele>
        <time>2014-06-07T12:20:40Z</time>
      </trkpt>
      <trkpt lat="45.63114" lon="6.23085">
        <ele>2108.78</ele>
        <time>2014-06-07T12:22:09Z</time>
      </trkpt>
      <trkpt lat="45.63132" lon="6.23086">
        <ele>2116.32</ele>
        <time>2014-06-07T12:23:42Z</time>
      </trkpt>
      <trkpt lat="45.63145" lon="6.23069">
        <ele>2128.55</ele>
        <time>2014-06-07T12:24:58Z</time>
      </trkpt>
      <trkpt lat="45.63161" lon="6.23056">
        <ele>2144.59</ele>
        <time>2014-06-07T12:27:10Z</time>
      </trkpt>
      <trkpt lat="45.63178" lon="6.23049">
        <ele>2159.24</ele>
        <time>2014-06-07T12:28:50Z</time>
      </trkpt>
      <trkpt lat="45.63194" lon="6.23035">
        <ele>2177.9</ele>
        <time>2014-06-07T12:31:09Z</time>
      </trkpt>
      <trkpt lat="45.63197" lon="6.2301">
        <ele>2197.55</ele>
        <time>2014-06-07T12:33:05Z</time>
      </trkpt>
      <trkpt lat="45.63186" lon="6.22989">
        <ele>2201.43</ele>
        <time>2014-06-07T12:33:47Z</time>
      </trkpt>
      <trkpt lat="45.63174" lon="6.2297">
        <ele>2202.02</ele>
        <time>2014-06-07T12:50:07Z</time>
      </trkpt>
      <trkpt lat="45.63163" lon="6.22949">
        <ele>2200.36</ele>
        <time>2014-06-07T12:50:35Z</time>
      </trkpt>
      <trkpt lat="45.63147" lon="6.22935">
        <ele>2199.35</ele>
        <time>2014-06-07T12:51:46Z</time>
      </trkpt>
      <trkpt lat="45.63129" lon="6.22928">
        <ele>2202.1</ele>
        <time>2014-06-07T12:52:11Z</time>
      </trkpt>
      <trkpt lat="45.63121" lon="6.22905">
        <ele>2197.29</ele>
        <time>2014-06-07T12:53:38Z</time>
      </trkpt>
      <trkpt lat="45.63116" lon="6.2288">
        <ele>2190.12</ele>
        <time>2014-06-07T12:54:10Z</time>
      </trkpt>
      <trkpt lat="45.63107" lon="6.22856">
        <ele>2183.5</ele>
        <time>2014-06-07T12:55:02Z</time>
      </trkpt>
      <trkpt lat="45.631" lon="6.22832">
        <ele>2171.5</ele>
        <time>2014-06-07T12:55:34Z</time>
      </trkpt>
      <trkpt lat="45.63094" lon="6.22807">
        <ele>2168.7</ele>
        <time>2014-06-07T12:55:57Z</time>
      </trkpt>
      <trkpt lat="45.63088" lon="6.22783">
        <ele>2162.41</ele>
        <time>2014-06-07T12:56:17Z</time>
      </trkpt>
      <trkpt lat="45.63087" lon="6.22756">
        <ele>2157</ele>
        <time>2014-06-07T12:56:48Z</time>
      </trkpt>
      <trkpt lat="45.63082" lon="6.22731">
        <ele>2150.77</ele>
        <time>2014-06-07T12:57:11Z</time>
      </trkpt>
      <trkpt lat="45.63074" lon="6.22708">
        <ele>2143.19</ele>
        <time>2014-06-07T12:58:19Z</time>
      </trkpt>
      <trkpt lat="45.63065" lon="6.22685">
        <ele>2141</ele>
        <time>2014-06-07T12:58:42Z</time>
      </trkpt>
      <trkpt lat="45.63058" lon="6.22661">
        <ele>2134.92</ele>
        <time>2014-06-07T12:59:15Z</time>
      </trkpt>
      <trkpt lat="45.63056" lon="6.22635">
        <ele>2127.39</ele>
        <time>2014-06-07T13:01:51Z</time>
      </trkpt>
      <trkpt lat="45.63068" lon="6.22615">
        <ele>2115.71</ele>
        <time>2014-06-07T13:02:31Z</time>
      </trkpt>
      <trkpt lat="45.63082" lon="6.22599">
        <ele>2105.37</ele>
        <time>2014-06-07T13:03:33Z</time>
      </trkpt>
      <trkpt lat="45.63082" lon="6.22573">
        <ele>2093.79</ele>
        <time>2014-06-07T13:05:35Z</time>
      </trkpt>
      <trkpt lat="45.63093" lon="6.22553">
        <ele>2076.67</ele>
        <time>2014-06-07T13:06:24Z</time>
      </trkpt>
      <trkpt lat="45.631" lon="6.22529">
        <ele>2061.53</ele>
        <time>2014-06-07T13:08:44Z</time>
      </trkpt>
      <trkpt lat="45.63118" lon="6.22527">
        <ele>2041.81</ele>
        <time>2014-06-07T13:10:18Z</time>
      </trkpt>
      <trkpt lat="45.63134" lon="6.22516">
        <ele>2024.39</ele>
        <time>2014-06-07T13:12:04Z</time>
      </trkpt>
      <trkpt lat="45.63143" lon="6.22493">
        <ele>2012.08</ele>
        <time>2014-06-07T13:13:03Z</time>
      </trkpt>
      <trkpt lat="45.63159" lon="6.22482">
        <ele>2005.85</ele>
        <time>2014-06-07T13:15:10Z</time>
      </trkpt>
      <trkpt lat="45.63174" lon="6.22466">
        <ele>1993.28</ele>
        <time>2014-06-07T13:16:30Z</time>
      </trkpt>
      <trkpt lat="45.63191" lon="6.22455">
        <ele>1987.24</ele>
        <time>2014-06-07T13:17:08Z</time>
      </trkpt>
      <trkpt lat="45.63206" lon="6.22441">
        <ele>1975.85</ele>
        <time>2014-06-07T13:17:57Z</time>
      </trkpt>
      <trkpt lat="45.63215" lon="6.22418">
        <ele>1965.49</ele>
        <time>2014-06-07T13:18:32Z</time>
      </trkpt>
      <trkpt lat="45.63224" lon="6.22396">
        <ele>1956.23</ele>
        <time>2014-06-07T13:19:01Z</time>
      </trkpt>
      <trkpt lat="45.63232" lon="6.22372">
        <ele>1945.87</ele>
        <time>2014-06-07T13:19:38Z</time>
      </trkpt>
      <trkpt lat="45.63217" lon="6.22355">
        <ele>1937.77</ele>
        <time>2014-06-07T13:20:14Z</time>
      </trkpt>
      <trkpt lat="45.63204" lon="6.22337">
        <ele>1925.85</ele>
        <time>2014-06-07T13:21:41Z</time>
      </trkpt>
      <trkpt lat="45.63212" lon="6.22314">
        <ele>1909.66</ele>
        <time>2014-06-07T13:23:51Z</time>
      </trkpt>
      <trkpt lat="45.63222" lon="6.22292">
        <ele>1899.5</ele>
        <time>2014-06-07T13:24:34Z</time>
      </trkpt>
      <trkpt lat="45.63231" lon="6.22269">
        <ele>1871.99</ele>
        <time>2014-06-07T13:26:06Z</time>
      </trkpt>
      <trkpt lat="45.63248" lon="6.2226">
        <ele>1861.66</ele>
        <time>2014-06-07T13:26:57Z</time>
      </trkpt>
      <trkpt lat="45.63259" lon="6.22239">
        <ele>1842.53</ele>
        <time>2014-06-07T13:27:50Z</time>
      </trkpt>
      <trkpt lat="45.63274" lon="6.22224">
        <ele>1830.49</ele>
        <time>2014-06-07T13:28:32Z</time>
      </trkpt>
      <trkpt lat="45.63283" lon="6.22202">
        <ele>1820.96</ele>
        <time>2014-06-07T13:29:54Z</time>
      </trkpt>
      <trkpt lat="45.63286" lon="6.22176">
        <ele>1803.75</ele>
        <time>2014-06-07T13:31:22Z</time>
      </trkpt>
      <trkpt lat="45.63302" lon="6.22163">
        <ele>1791.81</ele>
        <time>2014-06-07T13:32:07Z</time>
      </trkpt>
      <trkpt lat="45.6331" lon="6.2214">
        <ele>1781.07</ele>
        <time>2014-06-07T13:33:01Z</time>
      </trkpt>
      <trkpt lat="45.63321" lon="6.22119">
        <ele>1768.86</ele>
        <time>2014-06-07T13:34:06Z</time>
      </trkpt>
      <trkpt lat="45.63326" lon="6.22094">
        <ele>1755.54</ele>
        <time>2014-06-07T13:35:00Z</time>
      </trkpt>
      <trkpt lat="45.63336" lon="6.22072">
        <ele>1746.87</ele>
        <time>2014-06-07T13:35:29Z</time>
      </trkpt>
      <trkpt lat="45.63348" lon="6.22052">
        <ele>1742.62</ele>
        <time>2014-06-07T13:35:50Z</time>
      </trkpt>
      <trkpt lat="45.63354" lon="6.22027">
        <ele>1734.72</ele>
        <time>2014-06-07T13:36:17Z</time>
      </trkpt>
      <trkpt lat="45.63354" lon="6.22">
        <ele>1725.09</ele>
        <time>2014-06-07T13:37:03Z</time>
      </trkpt>
      <trkpt lat="45.63357" lon="6.21974">
        <ele>1718.25</ele>
        <time>2014-06-07T13:37:35Z</time>
      </trkpt>
      <trkpt lat="45.63363" lon="6.21949">
        <ele>1713.16</ele>
        <time>2014-06-07T13:37:58Z</time>
      </trkpt>
      <trkpt lat="45.63363" lon="6.21924">
        <ele>1701.71</ele>
        <time>2014-06-07T13:38:36Z</time>
      </trkpt>
      <trkpt lat="45.6335" lon="6.21905">
        <ele>1685.23</ele>
        <time>2014-06-07T13:39:41Z</time>
      </trkpt>
      <trkpt lat="45.63347" lon="6.2188">
        <ele>1673.45</ele>
        <time>2014-06-07T13:40:56Z</time>
      </trkpt>
      <trkpt lat="45.63341" lon="6.21854">
        <ele>1662.61</ele>
        <time>2014-06-07T13:42:26Z</time>
      </trkpt>
      <trkpt lat="45.63339" lon="6.21829">
        <ele>1649.03</ele>
        <time>2014-06-07T13:43:02Z</time>
      </trkpt>
      <trkpt lat="45.6334" lon="6.21803">
        <ele>1642.89</ele>
        <time>2014-06-07T13:43:19Z</time>
      </trkpt>
      <trkpt lat="45.63342" lon="6.21776">
        <ele>1641.64</ele>
        <time>2014-06-07T13:43:39Z</time>
      </trkpt>
      <trkpt lat="45.63351" lon="6.21752">
        <ele>1635.52</ele>
        <time>2014-06-07T13:44:02Z</time>
      </trkpt>
      <trkpt lat="45.63346" lon="6.21727">
        <ele>1623.71</ele>
        <time>2014-06-07T13:45:28Z</time>
      </trkpt>
      <trkpt lat="45.63333" lon="6.21709">
        <ele>1616.52</ele>
        <time>2014-06-07T13:46:03Z</time>
      </trkpt>
      <trkpt lat="45.63314" lon="6.21707">
        <ele>1601.51</ele>
        <time>2014-06-07T13:46:41Z</time>
      </trkpt>
      <trkpt lat="45.63296" lon="6.21707">
        <ele>1597.45</ele>
        <time>2014-06-07T13:51:01Z</time>
      </trkpt>
      <trkpt lat="45.63293" lon="6.21681">
        <ele>1595.95</ele>
        <time>2014-06-07T13:51:44Z</time>
      </trkpt>
      <trkpt lat="45.63298" lon="6.21656">
        <ele>1590.85</ele>
        <time>2014-06-07T13:52:04Z</time>
      </trkpt>
      <trkpt lat="45.63311" lon="6.21635">
        <ele>1589.01</ele>
        <time>2014-06-07T13:52:26Z</time>
      </trkpt>
      <trkpt lat="45.63328" lon="6.21623">
        <ele>1589.79</ele>
        <time>2014-06-07T13:52:42Z</time>
      </trkpt>
      <trkpt lat="45.63345" lon="6.21615">
        <ele>1574.36</ele>
        <time>2014-06-07T13:53:16Z</time>
      </trkpt>
      <trkpt lat="45.6336" lon="6.21602">
        <ele>1574.7</ele>
        <time>2014-06-07T13:53:41Z</time>
      </trkpt>
      <trkpt lat="45.63377" lon="6.21588">
        <ele>1561.94</ele>
        <time>2014-06-07T13:53:59Z</time>
      </trkpt>
      <trkpt lat="45.63381" lon="6.21561">
        <ele>1544.11</ele>
        <time>2014-06-07T13:55:03Z</time>
      </trkpt>
      <trkpt lat="45.63392" lon="6.21541">
        <ele>1535.6</ele>
        <time>2014-06-07T13:55:29Z</time>
      </trkpt>
      <trkpt lat="45.63408" lon="6.21527">
        <ele>1531.19</ele>
        <time>2014-06-07T13:55:52Z</time>
      </trkpt>
      <trkpt lat="45.63415" lon="6.21503">
        <ele>1521.38</ele>
        <time>2014-06-07T13:56:12Z</time>
      </trkpt>
      <trkpt lat="45.63414" lon="6.21477">
        <ele>1514.01</ele>
        <time>2014-06-07T13:56:31Z</time>
      </trkpt>
      <trkpt lat="45.63397" lon="6.21468">
        <ele>1515.58</ele>
        <time>2014-06-07T13:56:53Z</time>
      </trkpt>
      <trkpt lat="45.63393" lon="6.21443">
        <ele>1514.97</ele>
        <time>2014-06-07T13:57:38Z</time>
      </trkpt>
      <trkpt lat="45.63398" lon="6.21417">
        <ele>1513.72</ele>
        <time>2014-06-07T13:57:56Z</time>
      </trkpt>
      <trkpt lat="45.63408" lon="6.21393">
        <ele>1507.68</ele>
        <time>2014-06-07T13:58:15Z</time>
      </trkpt>
      <trkpt lat="45.63419" lon="6.21371">
        <ele>1494.13</ele>
        <time>2014-06-07T13:58:28Z</time>
      </trkpt>
      <trkpt lat="45.63424" lon="6.21345">
        <ele>1480.85</ele>
        <time>2014-06-07T13:58:50Z</time>
      </trkpt>
      <trkpt lat="45.63412" lon="6.21326">
        <ele>1473.45</ele>
        <time>2014-06-07T13:59:18Z</time>
      </trkpt>
      <trkpt lat="45.63398" lon="6.21309">
        <ele>1468.69</ele>
        <time>2014-06-07T13:59:59Z</time>
      </trkpt>
      <trkpt lat="45.634" lon="6.21284">
        <ele>1471.31</ele>
        <time>2014-06-07T14:00:22Z</time>
      </trkpt>
      <trkpt lat="45.63411" lon="6.21263">
        <ele>1470.32</ele>
        <time>2014-06-07T14:00:41Z</time>
      </trkpt>
      <trkpt lat="45.63426" lon="6.21247">
        <ele>1454.11</ele>
        <time>2014-06-07T14:00:55Z</time>
      </trkpt>
      <trkpt lat="45.6344" lon="6.21229">
        <ele>1435.43</ele>
        <time>2014-06-07T14:01:13Z</time>
      </trkpt>
      <trkpt lat="45.63445" lon="6.21203">
        <ele>1423.48</ele>
        <time>2014-06-07T14:01:32Z</time>
      </trkpt>
      <trkpt lat="45.63444" lon="6.21176">
        <ele>1417.14</ele>
        <time>2014-06-07T14:02:17Z</time>
      </trkpt>
      <trkpt lat="45.63443" lon="6.21151">
        <ele>1404.31</ele>
        <time>2014-06-07T14:02:39Z</time>
      </trkpt>
      <trkpt lat="45.63427" lon="6.21138">
        <ele>1400.82</ele>
        <time>2014-06-07T14:03:12Z</time>
      </trkpt>
      <trkpt lat="45.63427" lon="6.21112">
        <ele>1384.82</ele>
        <time>2014-06-07T14:04:00Z</time>
      </trkpt>
      <trkpt lat="45.63411" lon="6.21102">
        <ele>1378.94</ele>
        <time>2014-06-07T14:04:27Z</time>
      </trkpt>
      <trkpt lat="45.63417" lon="6.21078">
        <ele>1377.23</ele>
        <time>2014-06-07T14:05:17Z</time>
      </trkpt>
      <trkpt lat="45.63427" lon="6.21055">
        <ele>1375.63</ele>
        <time>2014-06-07T14:06:10Z</time>
      </trkpt>
      <trkpt lat="45.63442" lon="6.21041">
        <ele>1369.03</ele>
        <time>2014-06-07T14:06:29Z</time>
      </trkpt>
      <trkpt lat="45.63457" lon="6.21023">
        <ele>1356.56</ele>
        <time>2014-06-07T14:06:48Z</time>
      </trkpt>
      <trkpt lat="45.63443" lon="6.21005">
        <ele>1340.44</ele>
        <time>2014-06-07T14:07:52Z</time>
      </trkpt>
      <trkpt lat="45.63425" lon="6.20997">
        <ele>1334.95</ele>
        <time>2014-06-07T14:08:10Z</time>
      </trkpt>
      <trkpt lat="45.63434" lon="6.20974">
        <ele>1329.14</ele>
        <time>2014-06-07T14:08:48Z</time>
      </trkpt>
      <trkpt lat="45.63436" lon="6.20948">
        <ele>1321.6</ele>
        <time>2014-06-07T14:09:20Z</time>
      </trkpt>
      <trkpt lat="45.63428" lon="6.20925">
        <ele>1310.04</ele>
        <time>2014-06-07T14:09:55Z</time>
      </trkpt>
      <trkpt lat="45.63432" lon="6.20899">
        <ele>1309.73</ele>
        <time>2014-06-07T14:10:16Z</time>
      </trkpt>
      <trkpt lat="45.63417" lon="6.20885">
        <ele>1287.44</ele>
        <time>2014-06-07T14:10:40Z</time>
      </trkpt>
      <trkpt lat="45.63414" lon="6.2086">
        <ele>1283.72</ele>
        <time>2014-06-07T14:11:25Z</time>
      </trkpt>
      <trkpt lat="45.63417" lon="6.20833">
        <ele>1279.44</ele>
        <time>2014-06-07T14:11:40Z</time>
      </trkpt>
      <trkpt lat="45.63421" lon="6.20808">
        <ele>1283.77</ele>
        <time>2014-06-07T14:12:04Z</time>
      </trkpt>
      <trkpt lat="45.63428" lon="6.20783">
        <ele>1279.3</ele>
        <time>2014-06-07T14:12:30Z</time>
      </trkpt>
      <trkpt lat="45.63437" lon="6.2076">
        <ele>1256.65</ele>
        <time>2014-06-07T14:13:01Z</time>
      </trkpt>
      <trkpt lat="45.63455" lon="6.20758">
        <ele>1255</ele>
        <time>2014-06-07T14:13:24Z</time>
      </trkpt>
      <trkpt lat="45.63457" lon="6.20732">
        <ele>1241.06</ele>
        <time>2014-06-07T14:13:45Z</time>
      </trkpt>
      <trkpt lat="45.63455" lon="6.20706">
        <ele>1244.74</ele>
        <time>2014-06-07T14:14:02Z</time>
      </trkpt>
      <trkpt lat="45.63474" lon="6.20703">
        <ele>1238.77</ele>
        <time>2014-06-07T14:14:30Z</time>
      </trkpt>
      <trkpt lat="45.63492" lon="6.20705">
        <ele>1229.56</ele>
        <time>2014-06-07T14:15:13Z</time>
      </trkpt>
      <trkpt lat="45.63503" lon="6.20684">
        <ele>1219.42</ele>
        <time>2014-06-07T14:15:44Z</time>
      </trkpt>
      <trkpt lat="45.63506" lon="6.20658">
        <ele>1221.73</ele>
        <time>2014-06-07T14:16:05Z</time>
      </trkpt>
      <trkpt lat="45.63505" lon="6.20632">
        <ele>1219.26</ele>
        <time>2014-06-07T14:16:25Z</time>
      </trkpt>
      <trkpt lat="45.635" lon="6.20607">
        <ele>1214.19</ele>
        <time>2014-06-07T14:16:42Z</time>
      </trkpt>
      <trkpt lat="45.63497" lon="6.2058">
        <ele>1212.47</ele>
        <time>2014-06-07T14:17:00Z</time>
      </trkpt>
      <trkpt lat="45.63486" lon="6.20558">
        <ele>1209.12</ele>
        <time>2014-06-07T14:17:14Z</time>
      </trkpt>
      <trkpt lat="45.6347" lon="6.20547">
        <ele>1198.38</ele>
        <time>2014-06-07T14:17:23Z</time>
      </trkpt>
      <trkpt lat="45.63452" lon="6.20539">
        <ele>1190.01</ele>
        <time>2014-06-07T14:17:39Z</time>
      </trkpt>
      <trkpt lat="45.63453" lon="6.20512">
        <ele>1178.56</ele>
        <time>2014-06-07T14:18:16Z</time>
      </trkpt>
      <trkpt lat="45.63459" lon="6.20488">
        <ele>1175.1</ele>
        <time>2014-06-07T14:18:53Z</time>
      </trkpt>
      <trkpt lat="45.63443" lon="6.20473">
        <ele>1175.76</ele>
        <time>2014-06-07T14:19:15Z</time>
      </trkpt>
      <trkpt lat="45.63451" lon="6.20449">
        <ele>1156.14</ele>
        <time>2014-06-07T14:20:30Z</time>
      </trkpt>
      <trkpt lat="45.63466" lon="6.20432">
        <ele>1149.93</ele>
        <time>2014-06-07T14:20:53Z</time>
      </trkpt>
      <trkpt lat="45.63472" lon="6.20408">
        <ele>1140.33</ele>
        <time>2014-06-07T14:21:17Z</time>
      </trkpt>
      <trkpt lat="45.63455" lon="6.20399">
        <ele>1132.84</ele>
        <time>2014-06-07T14:21:45Z</time>
      </trkpt>
      <trkpt lat="45.63438" lon="6.2039">
        <ele>1131.86</ele>
        <time>2014-06-07T14:22:15Z</time>
      </trkpt>
      <trkpt lat="45.63449" lon="6.20367">
        <ele>1124.5</ele>
        <time>2014-06-07T14:22:50Z</time>
      </trkpt>
      <trkpt lat="45.6346" lon="6.20345">
        <ele>1105.59</ele>
        <time>2014-06-07T14:23:08Z</time>
      </trkpt>
      <trkpt lat="45.63467" lon="6.20321">
        <ele>1095.77</ele>
        <time>2014-06-07T14:23:59Z</time>
      </trkpt>
      <trkpt lat="45.6348" lon="6.20303">
        <ele>1082.96</ele>
        <time>2014-06-07T14:24:31Z</time>
      </trkpt>
      <trkpt lat="45.63489" lon="6.2028">
        <ele>1071.53</ele>
        <time>2014-06-07T14:24:49Z</time>
      </trkpt>
      <trkpt lat="45.63474" lon="6.20263">
        <ele>1069.13</ele>
        <time>2014-06-07T14:25:15Z</time>
      </trkpt>
      <trkpt lat="45.63487" lon="6.20245">
        <ele>1069.53</ele>
        <time>2014-06-07T14:25:57Z</time>
      </trkpt>
      <trkpt lat="45.63505" lon="6.20253">
        <ele>1065.6</ele>
        <time>2014-06-07T14:26:15Z</time>
      </trkpt>
      <trkpt lat="45.63521" lon="6.20266">
        <ele>1065.74</ele>
        <time>2014-06-07T14:26:30Z</time>
      </trkpt>
      <trkpt lat="45.63537" lon="6.20281">
        <ele>1073.02</ele>
        <time>2014-06-07T14:26:46Z</time>
      </trkpt>
      <trkpt lat="45.63549" lon="6.20303">
        <ele>1067.32</ele>
        <time>2014-06-07T14:26:59Z</time>
      </trkpt>
      <trkpt lat="45.63558" lon="6.20326">
        <ele>1062.67</ele>
        <time>2014-06-07T14:27:11Z</time>
      </trkpt>
      <trkpt lat="45.63564" lon="6.20351">
        <ele>1048.39</ele>
        <time>2014-06-07T14:27:56Z</time>
      </trkpt>
      <trkpt lat="45.63561" lon="6.20325">
        <ele>1037.15</ele>
        <time>2014-06-07T14:28:17Z</time>
      </trkpt>
      <trkpt lat="45.63551" lon="6.20303">
        <ele>1026.16</ele>
        <time>2014-06-07T14:28:37Z</time>
      </trkpt>
      <trkpt lat="45.63543" lon="6.2028">
        <ele>1015.58</ele>
        <time>2014-06-07T14:28:55Z</time>
      </trkpt>
      <trkpt lat="45.6354" lon="6.20252">
        <ele>1017.23</ele>
        <time>2014-06-07T14:29:04Z</time>
      </trkpt>
      <trkpt lat="45.63531" lon="6.20228">
        <ele>1021.1</ele>
        <time>2014-06-07T14:29:15Z</time>
      </trkpt>
      <trkpt lat="45.63524" lon="6.20202">
        <ele>1020.66</ele>
        <time>2014-06-07T14:29:27Z</time>
      </trkpt>
      <trkpt lat="45.63511" lon="6.20182">
        <ele>1022.26</ele>
        <time>2014-06-07T14:29:42Z</time>
      </trkpt>
      <trkpt lat="45.63493" lon="6.20171">
        <ele>1021.65</ele>
        <time>2014-06-07T14:29:57Z</time>
      </trkpt>
      <trkpt lat="45.63503" lon="6.20149">
        <ele>1021.44</ele>
        <time>2014-06-07T14:30:30Z</time>
      </trkpt>
      <trkpt lat="45.6352" lon="6.20159">
        <ele>1013.82</ele>
        <time>2014-06-07T14:30:43Z</time>
      </trkpt>
      <trkpt lat="45.63534" lon="6.20174">
        <ele>1005.91</ele>
        <time>2014-06-07T14:31:02Z</time>
      </trkpt>
      <trkpt lat="45.63548" lon="6.20191">
        <ele>1006.41</ele>
        <time>2014-06-07T14:31:19Z</time>
      </trkpt>
      <trkpt lat="45.63563" lon="6.2021">
        <ele>1006.16</ele>
        <time>2014-06-07T14:31:33Z</time>
      </trkpt>
      <trkpt lat="45.63573" lon="6.20231">
        <ele>1002.38</ele>
        <time>2014-06-07T14:31:48Z</time>
      </trkpt>
      <trkpt lat="45.63584" lon="6.20251">
        <ele>1002.92</ele>
        <time>2014-06-07T14:32:01Z</time>
      </trkpt>
      <trkpt lat="45.63601" lon="6.20265">
        <ele>1001.55</ele>
        <time>2014-06-07T14:32:15Z</time>
      </trkpt>
      <trkpt lat="45.63617" lon="6.20276">
        <ele>1000.88</ele>
        <time>2014-06-07T14:32:25Z</time>
      </trkpt>
      <trkpt lat="45.63626" lon="6.20299">
        <ele>992.64</ele>
        <time>2014-06-07T14:34:35Z</time>
      </trkpt>
      <trkpt lat="45.6364" lon="6.20316">
        <ele>986.48</ele>
        <time>2014-06-07T14:34:51Z</time>
      </trkpt>
      <trkpt lat="45.63652" lon="6.20337">
        <ele>975.13</ele>
        <time>2014-06-07T14:35:06Z</time>
      </trkpt>
      <trkpt lat="45.63664" lon="6.20358">
        <ele>974.09</ele>
        <time>2014-06-07T14:35:20Z</time>
      </trkpt>
      <trkpt lat="45.63679" lon="6.20376">
        <ele>978.88</ele>
        <time>2014-06-07T14:35:31Z</time>
      </trkpt>
      <trkpt lat="45.63692" lon="6.20394">
        <ele>977.68</ele>
        <time>2014-06-07T14:35:43Z</time>
      </trkpt>
      <trkpt lat="45.63707" lon="6.20413">
        <ele>978.01</ele>
        <time>2014-06-07T14:35:56Z</time>
      </trkpt>
      <trkpt lat="45.63721" lon="6.20433">
        <ele>977.81</ele>
        <time>2014-06-07T14:36:10Z</time>
      </trkpt>
      <trkpt lat="45.63729" lon="6.20456">
        <ele>973.44</ele>
        <time>2014-06-07T14:36:26Z</time>
      </trkpt>
      <trkpt lat="45.63737" lon="6.2048">
        <ele>970.71</ele>
        <time>2014-06-07T14:36:39Z</time>
      </trkpt>
      <trkpt lat="45.63747" lon="6.20502">
        <ele>968.76</ele>
        <time>2014-06-07T14:36:52Z</time>
      </trkpt>
      <trkpt lat="45.63756" lon="6.20524">
        <ele>967.24</ele>
        <time>2014-06-07T14:37:05Z</time>
      </trkpt>
      <trkpt lat="45.63767" lon="6.20546">
        <ele>966.24</ele>
        <time>2014-06-07T14:37:20Z</time>
      </trkpt>
      <trkpt lat="45.6378" lon="6.20564">
        <ele>967.07</ele>
        <time>2014-06-07T14:37:33Z</time>
      </trkpt>
      <trkpt lat="45.63795" lon="6.20582">
        <ele>966.66</ele>
        <time>2014-06-07T14:37:47Z</time>
      </trkpt>
      <trkpt lat="45.63807" lon="6.206">
        <ele>961.41</ele>
        <time>2014-06-07T14:38:01Z</time>
      </trkpt>
      <trkpt lat="45.63823" lon="6.20616">
        <ele>959.82</ele>
        <time>2014-06-07T14:38:17Z</time>
      </trkpt>
      <trkpt lat="45.6384" lon="6.20627">
        <ele>957.48</ele>
        <time>2014-06-07T14:38:27Z</time>
      </trkpt>
      <trkpt lat="45.63853" lon="6.20644">
        <ele>958.45</ele>
        <time>2014-06-07T14:38:39Z</time>
      </trkpt>
      <trkpt lat="45.63867" lon="6.20663">
        <ele>950.92</ele>
        <time>2014-06-07T14:38:52Z</time>
      </trkpt>
      <trkpt lat="45.63879" lon="6.20684">
        <ele>949.22</ele>
        <time>2014-06-07T14:39:07Z</time>
      </trkpt>
      <trkpt lat="45.63883" lon="6.20709">
        <ele>944.54</ele>
        <time>2014-06-07T14:40:30Z</time>
      </trkpt>
      <trkpt lat="45.63901" lon="6.20712">
        <ele>941.31</ele>
        <time>2014-06-07T14:40:53Z</time>
      </trkpt>
      <trkpt lat="45.63916" lon="6.2073">
        <ele>937.7</ele>
        <time>2014-06-07T14:41:09Z</time>
      </trkpt>
      <trkpt lat="45.63928" lon="6.20749">
        <ele>938.49</ele>
        <time>2014-06-07T14:41:23Z</time>
      </trkpt>
      <trkpt lat="45.63938" lon="6.20771">
        <ele>938.76</ele>
        <time>2014-06-07T14:41:37Z</time>
      </trkpt>
      <trkpt lat="45.6394" lon="6.20798">
        <ele>934.34</ele>
        <time>2014-06-07T14:41:55Z</time>
      </trkpt>
      <trkpt lat="45.63953" lon="6.20779">
        <ele>926.69</ele>
        <time>2014-06-07T14:42:27Z</time>
      </trkpt>
      <trkpt lat="45.63967" lon="6.20763">
        <ele>918.14</ele>
        <time>2014-06-07T14:43:46Z</time>
      </trkpt>
      <trkpt lat="45.63982" lon="6.20747">
        <ele>904.77</ele>
        <time>2014-06-07T14:44:32Z</time>
      </trkpt>
      <trkpt lat="45.63987" lon="6.20721">
        <ele>884.7</ele>
        <time>2014-06-07T14:44:59Z</time>
      </trkpt>
      <trkpt lat="45.64005" lon="6.20721">
        <ele>880.36</ele>
        <time>2014-06-07T14:46:05Z</time>
      </trkpt>
      <trkpt lat="45.63999" lon="6.20695">
        <ele>858.36</ele>
        <time>2014-06-07T14:46:30Z</time>
      </trkpt>
      <trkpt lat="45.63993" lon="6.20671">
        <ele>853.86</ele>
        <time>2014-06-07T14:46:44Z</time>
      </trkpt>
      <trkpt lat="45.63988" lon="6.20645">
        <ele>862.77</ele>
        <time>2014-06-07T14:46:52Z</time>
      </trkpt>
      <trkpt lat="45.63982" lon="6.2062">
        <ele>870.77</ele>
        <time>2014-06-07T14:47:04Z</time>
      </trkpt>
      <trkpt lat="45.63973" lon="6.20597">
        <ele>865.71</ele>
        <time>2014-06-07T14:48:20Z</time>
      </trkpt>
      <trkpt lat="45.63962" lon="6.20576">
        <ele>864.63</ele>
        <time>2014-06-07T14:48:45Z</time>
      </trkpt>
      <trkpt lat="45.63951" lon="6.20555">
        <ele>863.15</ele>
        <time>2014-06-07T14:49:02Z</time>
      </trkpt>
      <trkpt lat="45.63937" lon="6.20537">
        <ele>863.5</ele>
        <time>2014-06-07T14:49:18Z</time>
      </trkpt>
      <trkpt lat="45.63921" lon="6.20521">
        <ele>863.16</ele>
        <time>2014-06-07T14:49:34Z</time>
      </trkpt>
    </trkseg>
  </trk>
</gpx>